createdAt,value
2019-05-05T00:01:36.776Z,6.40
2019-05-05T00:04:10.119Z,6.40
2019-05-05T00:06:41.261Z,6.50
2019-05-05T00:09:11.324Z,6.50
2019-05-05T00:12:00.150Z,6.40
2019-05-05T00:14:47.587Z,6.40
2019-05-05T00:17:22.595Z,6.40
2019-05-05T00:19:54.939Z,6.40
2019-05-05T00:22:24.641Z,6.40
2019-05-05T00:24:55.313Z,6.50
2019-05-05T00:27:25.662Z,6.50
2019-05-05T00:29:55.531Z,6.50
2019-05-05T00:32:25.419Z,6.50
2019-05-05T00:34:55.631Z,6.60
2019-05-05T00:37:25.768Z,6.50
2019-05-05T00:39:55.853Z,6.50
2019-05-05T00:42:25.642Z,6.40
2019-05-05T00:44:55.424Z,6.40
2019-05-05T00:47:34.453Z,6.30
2019-05-05T00:50:08.275Z,6.30
2019-05-05T00:52:38.092Z,6.30
2019-05-05T00:55:08.310Z,6.30
2019-05-05T00:57:38.063Z,6.30
2019-05-05T01:00:15.232Z,6.20
2019-05-05T01:02:47.724Z,6.20
2019-05-05T01:05:19.155Z,6.20
2019-05-05T01:07:49.703Z,6.20
2019-05-05T01:10:20.529Z,6.10
2019-05-05T01:12:50.303Z,6.10
2019-05-05T01:15:20.398Z,6.10
2019-05-05T01:17:50.326Z,6.10
2019-05-05T01:20:20.123Z,6.00
2019-05-05T01:22:49.948Z,6.00
2019-05-05T01:25:20.099Z,5.90
2019-05-05T01:27:49.944Z,5.90
2019-05-05T01:30:25.890Z,5.90
2019-05-05T01:33:00.339Z,5.90
2019-05-05T01:35:30.177Z,5.90
2019-05-05T01:38:04.939Z,5.90
2019-05-05T01:40:54.754Z,5.90
2019-05-05T01:43:25.409Z,5.80
2019-05-05T01:45:55.495Z,5.80
2019-05-05T01:48:25.286Z,5.80
2019-05-05T01:50:55.897Z,5.90
2019-05-05T01:53:25.685Z,5.80
2019-05-05T01:55:57.680Z,5.80
2019-05-05T01:58:27.501Z,5.80
2019-05-05T02:00:57.467Z,5.80
2019-05-05T02:03:27.241Z,5.80
2019-05-05T02:05:57.106Z,5.90
2019-05-05T02:08:27.231Z,5.90
2019-05-05T02:10:57.648Z,5.90
2019-05-05T02:13:27.478Z,5.90
2019-05-05T02:15:57.274Z,5.90
2019-05-05T02:18:27.060Z,5.90
2019-05-05T02:21:05.918Z,5.90
2019-05-05T02:23:37.023Z,5.90
2019-05-05T02:26:08.569Z,5.80
2019-05-05T02:29:05.502Z,5.80
2019-05-05T02:31:55.881Z,5.80
2019-05-05T02:34:29.227Z,5.80
2019-05-05T02:36:59.966Z,5.80
2019-05-05T02:39:29.950Z,5.80
2019-05-05T02:42:00.691Z,5.80
2019-05-05T02:44:34.740Z,5.80
2019-05-05T02:47:09.250Z,5.80
2019-05-05T02:49:40.134Z,5.70
2019-05-05T02:52:11.051Z,5.60
2019-05-05T02:54:41.901Z,5.50
2019-05-05T02:57:14.934Z,5.40
2019-05-05T02:59:59.142Z,5.30
2019-05-05T03:02:31.561Z,5.30
2019-05-05T03:05:04.211Z,5.30
2019-05-05T03:07:36.142Z,5.30
2019-05-05T03:10:08.561Z,5.30
2019-05-05T03:12:40.820Z,5.40
2019-05-05T03:15:14.292Z,5.30
2019-05-05T03:17:45.354Z,5.30
2019-05-05T03:20:15.827Z,5.40
2019-05-05T03:22:45.673Z,5.40
2019-05-05T03:25:15.721Z,5.40
2019-05-05T03:27:45.600Z,5.40
2019-05-05T03:30:15.711Z,5.40
2019-05-05T03:32:46.417Z,5.40
2019-05-05T03:35:17.624Z,5.40
2019-05-05T03:37:47.436Z,5.50
2019-05-05T03:40:19.107Z,5.50
2019-05-05T03:43:09.682Z,5.50
2019-05-05T03:45:54.304Z,5.50
2019-05-05T03:48:24.714Z,5.60
2019-05-05T03:50:54.792Z,5.60
2019-05-05T03:53:25.389Z,5.70
2019-05-05T03:55:55.403Z,5.70
2019-05-05T03:58:27.098Z,5.70
2019-05-05T04:01:27.308Z,5.70
2019-05-05T04:03:58.750Z,5.70
2019-05-05T04:06:38.605Z,5.70
2019-05-05T04:09:08.830Z,5.70
2019-05-05T04:11:39.592Z,5.80
2019-05-05T04:14:10.554Z,5.80
2019-05-05T04:16:43.592Z,5.90
2019-05-05T04:19:15.968Z,6.00
2019-05-05T04:21:46.760Z,6.00
2019-05-05T04:24:16.652Z,6.10
2019-05-05T04:26:46.437Z,6.00
2019-05-05T04:29:16.662Z,6.10
2019-05-05T04:31:46.461Z,6.10
2019-05-05T04:34:16.509Z,6.00
2019-05-05T04:36:46.572Z,6.00
2019-05-05T04:39:16.349Z,6.00
2019-05-05T04:41:46.414Z,6.00
2019-05-05T04:44:17.905Z,6.00
2019-05-05T04:46:49.327Z,6.00
2019-05-05T04:49:30.186Z,6.00
2019-05-05T04:52:04.001Z,5.90
2019-05-05T04:54:38.362Z,5.90
2019-05-05T04:57:08.153Z,6.00
2019-05-05T04:59:38.882Z,5.90
2019-05-05T05:02:10.337Z,5.90
2019-05-05T05:04:53.561Z,5.90
2019-05-05T05:07:24.479Z,5.90
2019-05-05T05:09:54.466Z,5.90
2019-05-05T05:12:24.279Z,6.00
2019-05-05T05:14:54.691Z,6.00
2019-05-05T05:17:27.281Z,6.10
2019-05-05T05:19:57.059Z,6.10
2019-05-05T05:22:26.887Z,6.20
2019-05-05T05:24:56.660Z,6.20
2019-05-05T05:27:26.452Z,6.20
2019-05-05T05:29:56.479Z,6.30
2019-05-05T05:32:26.449Z,6.40
2019-05-05T05:34:56.302Z,6.50
2019-05-05T05:37:26.513Z,6.60
2019-05-05T05:40:01.161Z,6.60
2019-05-05T05:42:33.444Z,6.70
2019-05-05T05:45:04.390Z,6.70
2019-05-05T05:47:37.130Z,6.80
2019-05-05T05:50:09.285Z,6.90
2019-05-05T05:52:39.063Z,6.90
2019-05-05T05:55:10.215Z,6.90
2019-05-05T05:57:40.105Z,7.00
2019-05-05T06:00:10.555Z,7.10
2019-05-05T06:02:40.335Z,7.10
2019-05-05T06:05:10.163Z,7.20
2019-05-05T06:07:39.944Z,7.30
2019-05-05T06:10:21.348Z,7.30
2019-05-05T06:12:44.909Z,7.40
2019-05-05T06:15:15.158Z,7.40
2019-05-05T06:17:45.198Z,7.50
2019-05-05T06:20:15.226Z,7.60
2019-05-05T06:22:45.023Z,7.60
2019-05-05T06:25:16.142Z,7.70
2019-05-05T06:27:46.435Z,7.80
2019-05-05T06:30:16.734Z,7.90
2019-05-05T06:32:47.437Z,7.90
2019-05-05T06:35:17.278Z,7.90
2019-05-05T06:37:54.375Z,8.00
2019-05-05T06:40:34.181Z,8.00
2019-05-05T06:43:05.655Z,8.00
2019-05-05T06:45:37.082Z,8.10
2019-05-05T06:48:07.247Z,8.20
2019-05-05T06:50:37.366Z,8.30
2019-05-05T06:53:07.138Z,8.30
2019-05-05T06:55:37.505Z,8.40
2019-05-05T06:58:07.695Z,8.50
2019-05-05T07:00:37.696Z,8.50
2019-05-05T07:03:07.937Z,8.50
2019-05-05T07:05:37.796Z,8.60
2019-05-05T07:08:08.406Z,8.60
2019-05-05T07:10:39.334Z,8.60
2019-05-05T07:13:09.130Z,8.60
2019-05-05T07:15:39.966Z,8.70
2019-05-05T07:18:09.772Z,8.80
2019-05-05T07:20:39.728Z,8.80
2019-05-05T07:23:09.916Z,8.90
2019-05-05T07:25:43.056Z,8.90
2019-05-05T07:28:14.501Z,9.00
2019-05-05T07:30:44.939Z,9.00
2019-05-05T07:33:14.962Z,9.10
2019-05-05T07:35:56.682Z,9.20
2019-05-05T07:38:19.323Z,9.30
2019-05-05T07:40:49.105Z,9.30
2019-05-05T07:43:19.683Z,9.40
2019-05-05T07:45:49.580Z,9.40
2019-05-05T07:48:19.358Z,9.50
2019-05-05T07:51:01.222Z,9.60
2019-05-05T07:53:24.325Z,9.60
2019-05-05T07:55:54.292Z,9.80
2019-05-05T07:58:24.334Z,9.90
2019-05-05T08:00:54.549Z,9.90
2019-05-05T08:03:24.346Z,9.90
2019-05-05T08:05:54.552Z,9.90
2019-05-05T08:08:24.567Z,9.90
2019-05-05T08:10:54.590Z,10.00
2019-05-05T08:13:24.430Z,10.10
2019-05-05T08:15:59.828Z,10.10
2019-05-05T08:18:30.569Z,10.40
2019-05-05T08:21:04.385Z,10.50
2019-05-05T08:23:36.198Z,10.70
2019-05-05T08:26:24.531Z,10.70
2019-05-05T08:28:56.029Z,10.70
2019-05-05T08:31:44.852Z,10.80
2019-05-05T08:34:14.654Z,11.00
2019-05-05T08:36:44.993Z,11.20
2019-05-05T08:39:14.835Z,11.40
2019-05-05T08:41:47.300Z,11.50
2019-05-05T08:44:18.008Z,11.60
2019-05-05T08:46:47.914Z,11.70
2019-05-05T08:49:18.722Z,11.80
2019-05-05T08:51:48.509Z,12.00
2019-05-05T08:54:18.335Z,12.10
2019-05-05T08:56:48.836Z,12.20
2019-05-05T08:59:18.847Z,12.10
2019-05-05T09:01:48.681Z,12.00
2019-05-05T09:04:18.482Z,11.90
2019-05-05T09:06:48.284Z,11.70
2019-05-05T09:09:18.286Z,11.60
2019-05-05T09:11:48.768Z,11.50
2019-05-05T09:14:18.565Z,11.30
2019-05-05T09:16:48.398Z,11.20
2019-05-05T09:19:19.858Z,11.10
2019-05-05T09:21:49.639Z,11.00
2019-05-05T09:24:21.097Z,10.90
2019-05-05T09:26:59.062Z,10.90
2019-05-05T09:29:44.122Z,10.90
2019-05-05T09:32:14.786Z,10.90
2019-05-05T09:34:44.638Z,10.90
2019-05-05T09:37:14.533Z,11.00
2019-05-05T09:39:44.727Z,11.10
2019-05-05T09:42:14.741Z,11.20
2019-05-05T09:44:44.738Z,11.30
2019-05-05T09:47:14.520Z,11.10
2019-05-05T09:49:44.694Z,11.00
2019-05-05T09:52:14.744Z,10.90
2019-05-05T09:54:44.531Z,10.90
2019-05-05T09:57:14.674Z,10.90
2019-05-05T09:59:44.789Z,11.00
2019-05-05T10:02:14.567Z,11.00
2019-05-05T10:04:44.431Z,11.10
2019-05-05T10:07:14.244Z,11.20
2019-05-05T10:09:44.103Z,11.10
2019-05-05T10:12:13.912Z,11.00
2019-05-05T10:14:44.889Z,11.10
2019-05-05T10:17:15.485Z,11.10
2019-05-05T10:19:45.382Z,11.20
2019-05-05T10:22:15.193Z,11.10
2019-05-05T10:24:55.177Z,11.10
2019-05-05T10:27:24.306Z,11.10
2019-05-05T10:29:54.720Z,11.20
2019-05-05T10:32:24.791Z,11.30
2019-05-05T10:34:59.178Z,11.30
2019-05-05T10:37:28.964Z,11.30
2019-05-05T10:39:59.008Z,11.30
2019-05-05T10:42:47.861Z,11.30
2019-05-05T10:45:19.354Z,11.30
2019-05-05T10:47:49.914Z,11.20
2019-05-05T10:50:19.930Z,11.20
2019-05-05T10:52:49.970Z,11.40
2019-05-05T10:55:21.363Z,11.70
2019-05-05T10:57:51.184Z,12.00
2019-05-05T11:00:41.495Z,12.30
2019-05-05T11:03:11.385Z,12.20
2019-05-05T11:05:41.639Z,12.10
2019-05-05T11:08:13.732Z,12.10
2019-05-05T11:10:45.005Z,12.00
2019-05-05T11:13:15.694Z,11.80
2019-05-05T11:15:45.631Z,11.60
2019-05-05T11:18:15.443Z,11.60
2019-05-05T11:20:45.835Z,11.60
2019-05-05T11:23:15.674Z,11.50
2019-05-05T11:25:45.461Z,11.40
2019-05-05T11:28:15.516Z,11.40
2019-05-05T11:30:47.397Z,11.80
2019-05-05T11:33:35.304Z,12.00
2019-05-05T11:36:09.670Z,12.10
2019-05-05T11:38:41.715Z,12.00
2019-05-05T11:41:14.357Z,12.00
2019-05-05T11:43:45.238Z,11.90
2019-05-05T11:46:15.099Z,11.90
2019-05-05T11:48:45.227Z,12.20
2019-05-05T11:51:15.302Z,12.60
2019-05-05T11:53:45.032Z,12.80
2019-05-05T11:56:15.163Z,13.00
2019-05-05T11:58:44.981Z,13.50
2019-05-05T12:01:15.098Z,13.90
2019-05-05T12:03:44.890Z,14.10
2019-05-05T12:06:14.949Z,14.20
2019-05-05T12:08:46.315Z,14.00
2019-05-05T12:11:16.321Z,13.60
2019-05-05T12:13:46.157Z,13.40
2019-05-05T12:16:17.630Z,13.00
2019-05-05T12:18:48.378Z,12.90
2019-05-05T12:21:18.329Z,12.80
2019-05-05T12:23:48.190Z,12.70
2019-05-05T12:26:29.061Z,12.60
2019-05-05T12:29:00.486Z,12.50
2019-05-05T12:31:33.866Z,12.40
2019-05-05T12:34:03.993Z,12.20
2019-05-05T12:36:34.280Z,12.20
2019-05-05T12:39:08.065Z,12.10
2019-05-05T12:41:37.915Z,12.10
2019-05-05T12:44:09.414Z,12.20
2019-05-05T12:46:44.631Z,12.30
2019-05-05T12:49:14.559Z,12.30
2019-05-05T12:51:44.345Z,12.40
2019-05-05T12:54:14.820Z,12.50
2019-05-05T12:56:44.795Z,12.60
2019-05-05T12:59:16.436Z,12.70
2019-05-05T13:01:47.136Z,12.90
2019-05-05T13:04:17.660Z,13.10
2019-05-05T13:06:47.403Z,13.10
2019-05-05T13:09:17.892Z,13.50
2019-05-05T13:11:47.707Z,13.50
2019-05-05T13:14:17.552Z,13.30
2019-05-05T13:16:53.028Z,13.10
2019-05-05T13:19:24.316Z,13.10
2019-05-05T13:22:15.660Z,13.10
2019-05-05T13:24:56.888Z,12.90
2019-05-05T13:27:35.279Z,12.90
2019-05-05T13:30:10.132Z,12.70
2019-05-05T13:32:39.922Z,12.70
2019-05-05T13:35:09.989Z,12.60
2019-05-05T13:37:40.146Z,12.60
2019-05-05T13:40:10.506Z,12.50
2019-05-05T13:42:41.259Z,12.50
2019-05-05T13:45:20.404Z,12.50
2019-05-05T13:47:50.256Z,12.50
2019-05-05T13:50:23.880Z,12.50
2019-05-05T13:52:53.932Z,12.60
2019-05-05T13:55:25.019Z,12.70
2019-05-05T13:57:54.928Z,12.90
2019-05-05T14:00:25.690Z,13.30
2019-05-05T14:02:55.521Z,13.70
2019-05-05T14:05:25.859Z,13.90
2019-05-05T14:07:55.669Z,14.10
2019-05-05T14:10:25.470Z,14.10
2019-05-05T14:12:55.903Z,14.10
2019-05-05T14:15:26.650Z,14.20
2019-05-05T14:17:56.489Z,14.40
2019-05-05T14:20:26.467Z,14.20
2019-05-05T14:22:56.654Z,14.10
2019-05-05T14:25:28.114Z,14.10
2019-05-05T14:27:58.277Z,14.00
2019-05-05T14:30:40.282Z,14.00
2019-05-05T14:33:11.715Z,14.10
2019-05-05T14:36:01.245Z,14.10
2019-05-05T14:38:34.376Z,13.80
2019-05-05T14:41:04.328Z,13.60
2019-05-05T14:43:34.958Z,13.30
2019-05-05T14:46:04.910Z,13.10
2019-05-05T14:48:37.226Z,13.00
2019-05-05T14:51:07.022Z,12.70
2019-05-05T14:53:37.551Z,12.50
2019-05-05T14:56:07.336Z,12.30
2019-05-05T14:58:38.049Z,12.00
2019-05-05T15:01:09.013Z,11.80
2019-05-05T15:03:38.796Z,11.70
2019-05-05T15:06:23.931Z,11.60
2019-05-05T15:09:03.780Z,11.50
2019-05-05T15:11:38.103Z,11.50
2019-05-05T15:14:08.782Z,11.50
2019-05-05T15:16:38.560Z,11.40
2019-05-05T15:19:08.417Z,11.40
2019-05-05T15:21:38.522Z,11.50
2019-05-05T15:24:08.310Z,11.50
2019-05-05T15:26:49.083Z,11.60
2019-05-05T15:29:09.813Z,11.60
2019-05-05T15:31:40.377Z,11.60
2019-05-05T15:34:11.538Z,11.70
2019-05-05T15:36:41.323Z,11.60
2019-05-05T15:39:11.124Z,11.70
2019-05-05T15:41:41.794Z,11.70
2019-05-05T15:44:13.409Z,11.80
2019-05-05T15:46:44.222Z,11.80
2019-05-05T15:49:14.238Z,11.70
2019-05-05T15:51:44.318Z,11.70
2019-05-05T15:54:15.368Z,11.70
2019-05-05T15:56:46.318Z,11.90
2019-05-05T15:59:16.099Z,12.00
2019-05-05T16:01:46.101Z,12.20
2019-05-05T16:04:15.961Z,12.60
2019-05-05T16:06:46.065Z,12.80
2019-05-05T16:09:21.573Z,12.80
2019-05-05T16:11:51.530Z,12.70
2019-05-05T16:14:23.706Z,12.50
2019-05-05T16:17:13.538Z,12.50
2019-05-05T16:19:50.590Z,12.50
2019-05-05T16:22:35.012Z,12.50
2019-05-05T16:25:17.005Z,12.40
2019-05-05T16:27:48.334Z,12.30
2019-05-05T16:30:19.659Z,12.40
2019-05-05T16:32:50.492Z,12.40
2019-05-05T16:35:21.461Z,12.30
2019-05-05T16:37:51.463Z,12.30
2019-05-05T16:40:23.235Z,12.20
2019-05-05T16:42:54.346Z,12.00
2019-05-05T16:45:24.676Z,11.90
2019-05-05T16:47:55.481Z,11.80
2019-05-05T16:50:26.171Z,11.90
2019-05-05T16:53:06.549Z,11.80
2019-05-05T16:55:38.273Z,11.80
2019-05-05T16:58:08.711Z,11.70
2019-05-05T17:00:38.874Z,11.70
2019-05-05T17:03:13.453Z,11.70
2019-05-05T17:05:46.557Z,11.70
2019-05-05T17:08:16.074Z,11.60
2019-05-05T17:10:45.988Z,11.60
2019-05-05T17:13:26.557Z,11.50
2019-05-05T17:16:13.468Z,11.50
2019-05-05T17:18:48.249Z,11.40
2019-05-05T17:21:19.722Z,11.30
2019-05-05T17:23:49.504Z,11.20
2019-05-05T17:26:19.804Z,11.10
2019-05-05T17:28:49.641Z,11.00
2019-05-05T17:31:19.647Z,10.90
2019-05-05T17:33:50.095Z,10.90
2019-05-05T17:36:21.309Z,10.90
2019-05-05T17:38:51.103Z,10.90
2019-05-05T17:41:34.100Z,10.90
2019-05-05T17:44:05.603Z,10.90
2019-05-05T17:46:40.580Z,10.80
2019-05-05T17:49:14.137Z,10.80
2019-05-05T17:51:47.776Z,10.60
2019-05-05T17:54:24.202Z,10.70
2019-05-05T17:56:55.180Z,10.60
2019-05-05T17:59:25.869Z,10.60
2019-05-05T18:01:56.124Z,10.50
2019-05-05T18:04:26.320Z,10.50
2019-05-05T18:07:04.275Z,10.50
2019-05-05T18:09:53.935Z,10.50
2019-05-05T18:12:25.532Z,10.50
2019-05-05T18:14:57.641Z,10.40
2019-05-05T18:17:27.765Z,10.40
2019-05-05T18:19:58.547Z,10.30
2019-05-05T18:22:28.319Z,10.20
2019-05-05T18:24:58.136Z,10.10
2019-05-05T18:27:28.757Z,10.10
2019-05-05T18:29:58.539Z,10.00
2019-05-05T18:32:28.355Z,10.00
2019-05-05T18:34:58.845Z,9.90
2019-05-05T18:37:28.619Z,9.80
2019-05-05T18:39:58.425Z,9.70
2019-05-05T18:42:28.675Z,9.70
2019-05-05T18:45:00.343Z,9.60
2019-05-05T18:47:30.152Z,9.50
2019-05-05T18:49:59.986Z,9.50
2019-05-05T18:52:30.095Z,9.40
2019-05-05T18:55:00.000Z,9.40
2019-05-05T18:57:29.769Z,9.40
2019-05-05T19:00:00.408Z,9.40
2019-05-05T19:02:34.684Z,9.30
2019-05-05T19:05:27.602Z,9.30
2019-05-05T19:07:59.046Z,9.30
2019-05-05T19:10:28.997Z,9.30
2019-05-05T19:12:58.780Z,9.20
2019-05-05T19:15:28.608Z,9.10
2019-05-05T19:17:58.472Z,9.00
2019-05-05T19:20:38.690Z,9.00
2019-05-05T19:23:08.543Z,8.90
2019-05-05T19:25:38.338Z,8.90
2019-05-05T19:28:08.160Z,8.80
2019-05-05T19:30:38.872Z,8.70
2019-05-05T19:33:08.648Z,8.60
2019-05-05T19:35:44.093Z,8.60
2019-05-05T19:38:10.799Z,8.50
2019-05-05T19:40:40.863Z,8.40
2019-05-05T19:43:11.128Z,8.30
2019-05-05T19:45:40.915Z,8.30
2019-05-05T19:48:10.825Z,8.40
2019-05-05T19:50:44.452Z,8.40
2019-05-05T19:53:24.929Z,8.30
2019-05-05T19:55:57.560Z,8.30
2019-05-05T19:58:28.315Z,8.20
2019-05-05T20:00:59.817Z,8.10
2019-05-05T20:03:34.667Z,8.00
2019-05-05T20:06:04.872Z,8.00
2019-05-05T20:08:40.983Z,8.00
2019-05-05T20:11:07.496Z,8.00
2019-05-05T20:13:37.936Z,8.10
2019-05-05T20:16:27.436Z,8.10
2019-05-05T20:18:58.173Z,8.10
2019-05-05T20:21:27.956Z,8.10
2019-05-05T20:23:57.771Z,8.10
2019-05-05T20:26:28.306Z,8.10
2019-05-05T20:29:10.464Z,8.10
2019-05-05T20:31:30.476Z,8.00
2019-05-05T20:34:03.951Z,8.00
2019-05-05T20:36:37.280Z,8.00
2019-05-05T20:39:08.333Z,8.00
2019-05-05T20:41:38.188Z,8.00
2019-05-05T20:44:08.016Z,8.00
2019-05-05T20:46:38.052Z,8.00
2019-05-05T20:49:07.848Z,7.90
2019-05-05T20:51:38.049Z,7.90
2019-05-05T20:54:07.834Z,7.80
2019-05-05T20:56:37.616Z,7.80
2019-05-05T20:59:07.494Z,7.80
2019-05-05T21:01:37.339Z,7.80
2019-05-05T21:04:08.257Z,7.80
2019-05-05T21:06:38.083Z,7.80
2019-05-05T21:09:08.467Z,7.80
2019-05-05T21:11:38.460Z,7.80
2019-05-05T21:14:08.325Z,7.80
2019-05-05T21:16:38.104Z,7.70
2019-05-05T21:19:08.317Z,7.80
2019-05-05T21:21:44.524Z,7.80
2019-05-05T21:24:14.651Z,7.80
2019-05-05T21:26:46.059Z,7.80
2019-05-05T21:29:16.750Z,7.80
2019-05-05T21:31:46.826Z,7.70
2019-05-05T21:34:16.690Z,7.80
2019-05-05T21:36:46.574Z,7.80
2019-05-05T21:39:16.880Z,7.80
2019-05-05T21:41:46.666Z,7.80
2019-05-05T21:44:16.572Z,7.90
2019-05-05T21:46:46.355Z,7.90
2019-05-05T21:49:16.872Z,7.90
2019-05-05T21:51:48.320Z,7.90
2019-05-05T21:54:28.514Z,7.90
2019-05-05T21:57:16.824Z,7.90
2019-05-05T21:59:55.533Z,7.90
2019-05-05T22:02:20.020Z,7.80
2019-05-05T22:04:50.328Z,7.70
2019-05-05T22:07:20.099Z,7.70
2019-05-05T22:09:50.209Z,7.70
2019-05-05T22:12:20.020Z,7.70
2019-05-05T22:14:49.805Z,7.70
2019-05-05T22:17:20.129Z,7.60
2019-05-05T22:19:51.700Z,7.60
2019-05-05T22:22:23.116Z,7.50
2019-05-05T22:24:54.051Z,7.50
2019-05-05T22:27:24.016Z,7.40
2019-05-05T22:30:02.472Z,7.50
2019-05-05T22:32:26.054Z,7.50
2019-05-05T22:34:56.420Z,7.50
2019-05-05T22:37:26.616Z,7.50
2019-05-05T22:39:56.440Z,7.40
2019-05-05T22:42:26.311Z,7.40
2019-05-05T22:44:56.260Z,7.30
2019-05-05T22:47:26.054Z,7.30
2019-05-05T22:49:56.398Z,7.30
2019-05-05T22:52:26.608Z,7.30
2019-05-05T22:54:56.384Z,7.40
2019-05-05T22:57:26.211Z,7.40
2019-05-05T22:59:56.389Z,7.60
2019-05-05T23:02:27.816Z,7.70
2019-05-05T23:04:59.273Z,7.80
2019-05-05T23:07:30.764Z,7.90
2019-05-05T23:10:01.252Z,7.90
2019-05-05T23:12:31.804Z,8.10
2019-05-05T23:15:01.576Z,8.10
2019-05-05T23:17:35.736Z,8.10
2019-05-05T23:20:33.892Z,8.10
2019-05-05T23:23:07.645Z,8.20
2019-05-05T23:25:39.011Z,8.20
2019-05-05T23:28:08.787Z,8.10
2019-05-05T23:30:41.867Z,8.20
2019-05-05T23:33:10.159Z,8.20
2019-05-05T23:35:39.941Z,8.20
2019-05-05T23:38:09.740Z,8.20
2019-05-05T23:40:39.760Z,8.20
2019-05-05T23:43:09.544Z,8.20
2019-05-05T23:45:39.410Z,8.20
2019-05-05T23:48:09.943Z,8.20
2019-05-05T23:50:39.879Z,8.30
2019-05-05T23:53:09.664Z,8.30
2019-05-05T23:55:39.472Z,8.30
2019-05-05T23:58:09.452Z,8.30
